Church Street, Georgia
Current Conditions -  °F | °C
As of 7:52 PM on Saturday 22 Nov 2014 (Local Time) from KATL Reporting Station
Overcast Overcast  
Wind Chill: 13°   Ceiling: 3200
Heat Index: 13°   Visibility: 10mi
Dew Point: -2°   Wind: 13mph
Humidity: 36%   Direction: 100°E
Pressure: 30.26"   Gusts: NA
Location:  33.559°N, 84.4436°W
Report Text: KATL 230052Z 10011KT 10SM BKN032 BKN060 OVC250 13/M02 A3026 RMK AO2 SLP249 T01331017 $
Loading
Personal Weather Stations






























Interactive Weather Map New forecast layout! Learn more

10-Day Weather Forecast

Advertisements
Track Severe Weather on mobile